createdAt,value
2022-08-29T00:03:19.678Z,101148.50
2022-08-29T00:08:25.987Z,101152.02
2022-08-29T00:13:31.587Z,101151.05
2022-08-29T00:18:37.898Z,101156.34
2022-08-29T00:23:47.973Z,101158.67
2022-08-29T00:28:53.540Z,101153.13
2022-08-29T00:33:59.139Z,101156.06
2022-08-29T00:39:09.213Z,101155.44
2022-08-29T00:44:13.716Z,101154.97
2022-08-29T00:49:31.382Z,101154.10
2022-08-29T00:54:38.071Z,101154.33
2022-08-29T00:59:43.858Z,101151.03
2022-08-29T01:04:49.390Z,101147.69
2022-08-29T01:09:55.470Z,101147.58
2022-08-29T01:15:04.299Z,101138.10
2022-08-29T01:20:32.297Z,101140.80
2022-08-29T01:25:40.938Z,101146.56
2022-08-29T01:31:04.425Z,101135.77
2022-08-29T01:36:12.234Z,101127.14
2022-08-29T01:41:20.831Z,101131.92
2022-08-29T01:46:29.745Z,101132.78
2022-08-29T01:51:36.891Z,101131.20
2022-08-29T01:56:45.282Z,101133.88
2022-08-29T02:02:02.869Z,101124.77
2022-08-29T02:07:12.541Z,101130.17
2022-08-29T02:12:17.385Z,101132.64
2022-08-29T02:17:23.876Z,101140.86
2022-08-29T02:22:29.380Z,101131.64
2022-08-29T02:27:36.585Z,101136.70
2022-08-29T02:32:42.120Z,101135.84
2022-08-29T02:37:47.685Z,101141.73
2022-08-29T02:42:54.947Z,101146.98
2022-08-29T02:48:00.851Z,101141.33
2022-08-29T02:53:06.522Z,101137.50
2022-08-29T02:58:12.046Z,101137.39
2022-08-29T03:03:18.061Z,101138.73
2022-08-29T03:08:23.630Z,101137.98
2022-08-29T03:13:29.196Z,101137.12
2022-08-29T03:18:34.864Z,101133.42
2022-08-29T03:23:40.422Z,101134.28
2022-08-29T03:28:46.898Z,101133.30
2022-08-29T03:33:52.776Z,101130.49
2022-08-29T03:38:58.247Z,101121.07
2022-08-29T03:44:04.068Z,101122.68
2022-08-29T03:49:10.095Z,101122.56
2022-08-29T03:54:15.671Z,101134.97
2022-08-29T03:59:21.251Z,101128.70
2022-08-29T04:04:45.432Z,101125.52
2022-08-29T04:09:51.105Z,101130.80
2022-08-29T04:14:56.651Z,101126.61
2022-08-29T04:20:02.149Z,101120.34
2022-08-29T04:25:10.713Z,101116.91
2022-08-29T04:30:20.168Z,101116.64
2022-08-29T04:35:26.290Z,101113.08
2022-08-29T04:40:32.441Z,101123.88
2022-08-29T04:45:40.682Z,101114.58
2022-08-29T04:50:46.357Z,101132.39
2022-08-29T04:56:09.638Z,101141.09
2022-08-29T05:01:18.554Z,101145.91
2022-08-29T05:06:25.885Z,101137.81
2022-08-29T05:11:33.225Z,101148.41
2022-08-29T05:16:39.197Z,101159.20
2022-08-29T05:21:45.144Z,101153.59
2022-08-29T05:26:51.639Z,101164.77
2022-08-29T05:32:02.112Z,101169.95
2022-08-29T05:37:14.792Z,101171.20
2022-08-29T05:42:23.067Z,101178.49
2022-08-29T05:47:28.632Z,101179.34
2022-08-29T05:52:34.818Z,101169.16
2022-08-29T05:57:40.698Z,101172.37
2022-08-29T06:02:46.443Z,101174.81
2022-08-29T06:07:53.563Z,101179.47
2022-08-29T06:12:59.363Z,101186.61
2022-08-29T06:18:06.939Z,101186.61
2022-08-29T06:23:12.700Z,101184.73
2022-08-29T06:28:19.761Z,101196.05
2022-08-29T06:33:26.091Z,101194.70
2022-08-29T06:38:31.565Z,101201.54
2022-08-29T06:43:37.245Z,101198.94
2022-08-29T06:48:42.882Z,101197.91
2022-08-29T06:53:48.486Z,101195.92
2022-08-29T06:58:55.078Z,101193.52
2022-08-29T07:04:01.323Z,101193.99
2022-08-29T07:09:08.111Z,101194.48
2022-08-29T07:14:14.392Z,101198.92
2022-08-29T07:19:19.960Z,101203.98
2022-08-29T07:24:25.566Z,101202.60
2022-08-29T07:29:31.186Z,101200.75
2022-08-29T07:34:36.961Z,101207.84
2022-08-29T07:39:42.628Z,101202.87
2022-08-29T07:44:48.186Z,101200.48
2022-08-29T07:49:54.165Z,101210.19
2022-08-29T07:54:59.723Z,101209.94
2022-08-29T08:00:08.215Z,101217.25
2022-08-29T08:05:15.470Z,101226.67
2022-08-29T08:10:21.443Z,101235.38
2022-08-29T08:15:28.338Z,101238.56
2022-08-29T08:20:34.115Z,101241.84
2022-08-29T08:25:39.797Z,101248.42
2022-08-29T08:30:45.525Z,101251.86
2022-08-29T08:35:51.110Z,101253.83
2022-08-29T08:41:08.551Z,101254.06
2022-08-29T08:46:14.998Z,101258.75
2022-08-29T08:51:23.496Z,101254.45
2022-08-29T08:56:44.399Z,101255.14
2022-08-29T09:01:59.173Z,101263.86
2022-08-29T09:07:39.664Z,101251.53
2022-08-29T09:13:22.295Z,101249.84
2022-08-29T09:18:35.148Z,101244.70
2022-08-29T09:23:52.507Z,101247.86
2022-08-29T09:28:59.315Z,101254.44
2022-08-29T09:34:15.619Z,101255.36
2022-08-29T09:39:32.916Z,101261.96
2022-08-29T09:44:39.300Z,101260.37
2022-08-29T09:49:47.843Z,101257.53
2022-08-29T09:54:53.406Z,101258.77
2022-08-29T10:00:17.679Z,101264.97
2022-08-29T10:05:46.819Z,101259.26
2022-08-29T10:10:55.288Z,101258.64
2022-08-29T10:16:15.589Z,101267.52
2022-08-29T10:21:40.583Z,101266.08
2022-08-29T10:27:07.339Z,101264.00
2022-08-29T10:32:27.857Z,101270.92
2022-08-29T10:37:48.380Z,101267.78
2022-08-29T10:43:13.492Z,101265.98
2022-08-29T10:48:22.099Z,101264.08
2022-08-29T10:53:33.338Z,101269.41
2022-08-29T10:59:17.997Z,101261.02
2022-08-29T11:04:29.437Z,101276.95
2022-08-29T11:09:47.677Z,101275.23
2022-08-29T11:15:04.915Z,101276.06
2022-08-29T11:20:23.182Z,101262.02
2022-08-29T11:25:32.385Z,101259.75
2022-08-29T11:30:56.010Z,101277.86
2022-08-29T11:36:13.657Z,101290.17
2022-08-29T11:41:40.253Z,101304.02
2022-08-29T11:46:53.616Z,101306.09
2022-08-29T11:51:59.683Z,101306.04
2022-08-29T11:57:08.895Z,101306.12
2022-08-29T12:02:32.484Z,101311.24
2022-08-29T12:07:41.428Z,101304.45
2022-08-29T12:12:51.250Z,101317.45
2022-08-29T12:18:13.891Z,101328.09
2022-08-29T12:23:25.840Z,101320.17
2022-08-29T12:28:37.613Z,101336.29
2022-08-29T12:34:02.905Z,101338.42
2022-08-29T12:44:17.493Z,101341.84
2022-08-29T12:49:32.095Z,101334.75
2022-08-29T12:54:42.015Z,101334.00
2022-08-29T12:59:52.139Z,101336.72
2022-08-29T13:04:59.243Z,101348.50
2022-08-29T13:10:06.861Z,101339.08
2022-08-29T13:15:24.923Z,101332.50
2022-08-29T13:20:50.028Z,101333.39
2022-08-29T13:26:09.318Z,101332.77
2022-08-29T13:31:21.572Z,101327.31
2022-08-29T13:36:46.968Z,101322.52
2022-08-29T13:42:10.676Z,101333.20
2022-08-29T13:47:19.244Z,101331.05
2022-08-29T13:52:25.683Z,101332.77
2022-08-29T13:57:34.391Z,101328.69
2022-08-29T14:02:45.239Z,101342.34
2022-08-29T14:07:48.819Z,101346.21
2022-08-29T14:12:54.534Z,101341.56
2022-08-29T14:18:00.458Z,101345.43
2022-08-29T14:23:07.459Z,101346.23
2022-08-29T14:28:16.094Z,101356.89
2022-08-29T14:33:20.536Z,101354.95
2022-08-29T14:38:26.101Z,101362.05
2022-08-29T14:43:34.241Z,101356.75
2022-08-29T14:48:39.079Z,101361.63
2022-08-29T14:53:54.080Z,101371.92
2022-08-29T14:58:52.667Z,101371.89
2022-08-29T15:03:58.357Z,101376.70
2022-08-29T15:09:04.029Z,101370.99
2022-08-29T15:14:09.933Z,101371.89
2022-08-29T15:24:23.039Z,101369.97
2022-08-29T15:29:30.450Z,101366.75
2022-08-29T15:34:36.112Z,101367.97
2022-08-29T15:39:42.413Z,101360.31
2022-08-29T15:44:51.362Z,101364.89
2022-08-29T15:49:56.079Z,101365.75
2022-08-29T15:55:01.852Z,101378.12
2022-08-29T16:00:09.128Z,101379.44
2022-08-29T16:05:17.338Z,101383.31
2022-08-29T16:10:23.145Z,101381.83
2022-08-29T16:15:30.602Z,101383.91
2022-08-29T16:20:38.027Z,101378.21
2022-08-29T16:25:44.461Z,101385.89
2022-08-29T16:30:51.776Z,101384.14
2022-08-29T16:35:58.763Z,101382.45
2022-08-29T16:41:10.373Z,101382.81
2022-08-29T16:46:17.833Z,101296.17
2022-08-29T16:51:25.761Z,101380.27
2022-08-29T16:56:33.110Z,101382.42
2022-08-29T17:01:43.201Z,101380.72
2022-08-29T17:06:49.372Z,101386.92
2022-08-29T17:11:56.235Z,101388.62
2022-08-29T17:17:03.416Z,101391.00
2022-08-29T17:22:10.660Z,101400.61
2022-08-29T17:27:21.117Z,101407.03
2022-08-29T17:32:23.834Z,101414.25
2022-08-29T17:37:31.655Z,101410.23
2022-08-29T17:42:38.236Z,101410.84
2022-08-29T17:47:44.323Z,101426.09
2022-08-29T17:52:50.127Z,101419.69
2022-08-29T17:57:55.651Z,101412.32
2022-08-29T18:03:01.492Z,101413.77
2022-08-29T18:08:08.002Z,101418.09
2022-08-29T18:13:15.138Z,101414.27
2022-08-29T18:18:22.122Z,101431.41
2022-08-29T18:23:27.668Z,101424.16
2022-08-29T18:28:33.594Z,101439.27
2022-08-29T18:33:59.521Z,101444.77
2022-08-29T18:38:46.830Z,101443.16
2022-08-29T18:43:53.496Z,101445.45
2022-08-29T18:48:59.484Z,101445.56
2022-08-29T18:54:06.079Z,101455.75
2022-08-29T18:59:12.670Z,101463.44
2022-08-29T19:04:20.297Z,101475.92
2022-08-29T19:09:25.544Z,101476.09
2022-08-29T19:14:31.521Z,101481.16
2022-08-29T19:19:55.221Z,101482.13
2022-08-29T19:25:01.509Z,101485.22
2022-08-29T19:30:09.870Z,101486.70
2022-08-29T19:35:16.542Z,101492.25
2022-08-29T19:40:22.604Z,101487.27
2022-08-29T19:45:28.602Z,101480.48
2022-08-29T19:50:34.425Z,101492.69
2022-08-29T19:55:40.810Z,101487.06
2022-08-29T20:00:46.960Z,101489.37
2022-08-29T20:05:53.388Z,101492.69
2022-08-29T20:10:58.939Z,101491.33
2022-08-29T20:16:06.506Z,101495.16
2022-08-29T20:21:30.390Z,101497.25
2022-08-29T20:26:38.150Z,101503.91
2022-08-29T20:31:44.345Z,101503.05
2022-08-29T20:37:07.826Z,101499.84
2022-08-29T20:42:14.309Z,101505.64
2022-08-29T20:47:21.841Z,101505.27
2022-08-29T20:52:27.545Z,101511.69
2022-08-29T20:57:33.981Z,101510.25
2022-08-29T21:02:57.154Z,101519.25
2022-08-29T21:08:03.430Z,101516.30
2022-08-29T21:13:09.710Z,101513.83
2022-08-29T21:18:20.284Z,101519.13
2022-08-29T21:23:27.106Z,101521.72
2022-08-29T21:28:33.455Z,101520.37
2022-08-29T21:33:41.855Z,101524.31
2022-08-29T21:38:48.835Z,101529.00
2022-08-29T21:43:54.569Z,101523.58
2022-08-29T21:49:04.025Z,101524.56
2022-08-29T21:54:13.425Z,101521.23
2022-08-29T21:59:18.078Z,101516.80
2022-08-29T22:04:29.063Z,101518.77
2022-08-29T22:09:32.735Z,101519.50
2022-08-29T22:14:56.798Z,101522.38
2022-08-29T22:20:02.399Z,101529.49
2022-08-29T22:25:08.362Z,101526.66
2022-08-29T22:30:15.248Z,101529.62
2022-08-29T22:35:20.845Z,101532.82
2022-08-29T22:40:27.567Z,101540.09
2022-08-29T22:45:33.656Z,101541.09
2022-08-29T22:50:39.267Z,101545.53
2022-08-29T22:55:45.041Z,101545.30
2022-08-29T23:00:50.600Z,101544.44
2022-08-29T23:05:56.166Z,101559.47
2022-08-29T23:11:01.627Z,101560.20
2022-08-29T23:16:07.425Z,101561.17
2022-08-29T23:21:13.171Z,101558.72
2022-08-29T23:26:19.794Z,101556.50
2022-08-29T23:31:26.010Z,101562.05
2022-08-29T23:36:31.602Z,101556.50
2022-08-29T23:41:38.292Z,101561.67
2022-08-29T23:46:44.103Z,101564.73
2022-08-29T23:51:49.623Z,101556.72
2022-08-29T23:56:55.097Z,101561.77
